LIRS

Details ICAO LIRS (GRS)
Name GROSSETO
Region Italy
Timezone Europe/Rome (UTC+2.0)
Plans Departing 53
Arriving 59
Stats Elevation 15 ft / 5 m (AMSL)
Location 42.760900° 11.070600°
Runways 1
Magnetic Variation 2.964° E
Sunrise 2019-05-20 03:50:16 UTC / 2019-05-20 05:50:16 Local
Sunset 2019-05-20 18:37:02 UTC / 2019-05-20 20:37:02 Local
Advertisement - Login to hide

Runways

ID Width Length Bearing (true/mag) Surface Threshold Overrun Markings Lighting
03L 148 ft / 45 m 9,821 ft / 2,994 m 30.87° / 27.90° ASPHALT 318 ft / 97 m 0 ft / 0 m PREC-APP CENTERLINE EDGE THRESHOLD CALVERT TDZ REIL-OMNI
21R 148 ft / 45 m 9,821 ft / 2,994 m 210.88° / 207.92° ASPHALT 0 ft / 0 m 0 ft / 0 m APP CENTERLINE EDGE THRESHOLD REIL-OMNI

Map

Weather


0- 5 10 15 20 25 30 35+ Temperature / °C

Clouds and Precipitation
Forecast for 2019-05-20 00:00 UTC. Updated 5 hours ago

Ground ~20,000 ft ~40,000 ft Winds

METAR

LIRS 200155Z 03005KT 9999 -RA FEW005 SCT020 12/10 Q1006

TAF

Not found

Frequencies

Approach 124.52 MHz Grosseto approach
Tower 128.10 MHz Grosseto tower
Warning: Do not use this data for real-world aviation or navigation. No guarantee of current accuracy is given.